Portada
METAR-TAF:

METAR-TAF

Aeroports :

Aeroport de París-Charles de Gaulle

París-Charles de Gaulle, França

latitud: 49-01N, longitud: 002-32E, altitud: 118 m

Observació

L'informe es va fer fa 27 minuts, a les 03:30 UTC
Vent 8 kt del Nord/Nord-Est, variant entre Nord i Sud-Est
Temperatura 8°C
Humitat 93%
Pressió 1027 hPa
Visibilitat: 4000 m
boirina

METAR: LFPG 200330Z 02008KT 360V130 4000 BR NSC 08/07 Q1027 NOSIG

Hora: 05:57 (03:57 UTC)

Pronòstic

L'informe es va fer fa 2 hores i 4 minuts, a les 01:53 UTC
Pronòstic vàlid del 20 a les 01 UTC al 21 a les 06 UTC
Vent 8 kt del Nord
Visibilitat 10 km o més
sense núvols per sota de 1500 mi sense presència de cumulonimbus.
Temporalment
l' 20 a les 02 UTC al 20 a les 07 UTC
Visibilitat: 3500 m
boirina

TAF: LFPG 200153Z 2001/2106 01008KT CAVOK TX18/2014Z TN08/2006Z TEMPO 2002/2007 3500 BR

Observacions i pronòstics meteorològics de més de 4000 aeroports (METAR i TAF).

Les estacions disponibles són els punts grocs i vermells al mapa.

Posi el ratolí al punt desitjat per veure el nom de l'estació.

Feu clic per veure les observacions i els pronòstics meteorològics.

Per canviar el mapa: feu clic els botons verds amb una creu de color negre per apropar; al botó verd amb un guió per allunyar la imatge; o en les fletxes verdes per a mapes adjacents.


METAR-TAF: